Time,TemperatureF,DewpointF,PressureIn,WindDirection,WindDirectionDegrees,WindSpeedMPH,WindSpeedGustMPH,Humidity,HourlyPrecipIn,Conditions,Clouds,dailyrainin,SolarRadiationWatts/m^2,SoftwareType,DateUTC
2013-09-11 11:00:00,81.0,67.0,-100.00,West,270,9.0,-999.0,62,-99.99,,,-99.99,476.760010,,2013-09-11 15:00:00,
2013-09-11 11:43:00,81.0,67.0,-100.00,West,270,9.0,-999.0,62,-99.99,,,-99.99,476.760010,,2013-09-11 15:43:00,
2013-09-11 11:54:00,81.0,67.0,-100.00,West,270,9.0,-999.0,62,-99.99,,,-99.99,476.760010,,2013-09-11 15:54:00,
2013-09-11 12:00:00,81.0,68.0,-100.00,WSW,247,5.0,-999.0,63,-99.99,,,-99.99,534.760010,,2013-09-11 16:00:00,
2013-09-11 12:43:00,81.0,68.0,-100.00,WSW,247,5.0,-999.0,63,-99.99,,,-99.99,534.760010,,2013-09-11 16:43:00,
2013-09-11 12:53:00,81.0,68.0,-100.00,WSW,247,5.0,-999.0,63,-99.99,,,-99.99,534.760010,,2013-09-11 16:53:00,
2013-09-11 13:00:00,85.0,68.0,-100.00,SSW,202,3.0,-999.0,56,-99.99,,,-99.99,744.719971,,2013-09-11 17:00:00,
2013-09-11 13:43:00,85.0,68.0,-100.00,SSW,202,3.0,-999.0,56,-99.99,,,-99.99,744.719971,,2013-09-11 17:43:00,
2013-09-11 13:52:00,85.0,68.0,-100.00,SSW,202,3.0,-999.0,56,-99.99,,,-99.99,744.719971,,2013-09-11 17:52:00,
2013-09-11 14:00:00,87.0,67.0,-100.00,South,180,5.0,-999.0,52,-99.99,,,-99.99,734.280029,,2013-09-11 18:00:00,
2013-09-11 14:42:00,87.0,67.0,-100.00,South,180,5.0,-999.0,52,-99.99,,,-99.99,734.280029,,2013-09-11 18:42:00,
2013-09-11 14:52:00,87.0,67.0,-100.00,South,180,5.0,-999.0,52,-99.99,,,-99.99,734.280029,,2013-09-11 18:52:00,
2013-09-11 15:00:00,89.0,68.0,-100.00,WSW,247,7.0,-999.0,50,-99.99,,,-99.99,694.840027,,2013-09-11 19:00:00,
2013-09-11 15:42:00,89.0,68.0,-100.00,WSW,247,7.0,-999.0,50,-99.99,,,-99.99,694.840027,,2013-09-11 19:42:00,
2013-09-11 15:53:00,89.0,68.0,-100.00,WSW,247,7.0,-999.0,50,-99.99,,,-99.99,694.840027,,2013-09-11 19:53:00,
2013-09-11 16:00:00,84.0,67.0,-100.00,WNW,292,10.0,-999.0,56,-99.99,,,-99.99,467.480011,,2013-09-11 20:00:00,
2013-09-11 16:42:00,84.0,67.0,-100.00,WNW,292,10.0,-999.0,56,-99.99,,,-99.99,467.480011,,2013-09-11 20:42:00,
2013-09-11 16:52:00,84.0,67.0,-100.00,WNW,292,10.0,-999.0,56,-99.99,,,-99.99,467.480011,,2013-09-11 20:52:00,
2013-09-11 17:00:00,81.0,67.0,-100.00,NW,315,10.0,-999.0,62,-99.99,,,-99.99,271.440002,,2013-09-11 21:00:00,
2013-09-11 17:44:00,81.0,67.0,-100.00,NW,315,10.0,-999.0,62,-99.99,,,-99.99,271.440002,,2013-09-11 21:44:00,
2013-09-11 17:54:00,81.0,67.0,-100.00,NW,315,10.0,-999.0,62,-99.99,,,-99.99,271.440002,,2013-09-11 21:54:00,
2013-09-11 18:00:00,78.0,68.0,-100.00,NW,315,8.0,-999.0,71,-99.99,,,-99.99,185.600006,,2013-09-11 22:00:00,
2013-09-11 18:43:00,78.0,68.0,-100.00,NW,315,8.0,-999.0,71,-99.99,,,-99.99,185.600006,,2013-09-11 22:43:00,
2013-09-11 18:54:00,78.0,68.0,-100.00,NW,315,8.0,-999.0,71,-99.99,,,-99.99,185.600006,,2013-09-11 22:54:00,
2013-09-11 19:00:00,77.0,66.0,-100.00,WSW,247,4.0,-999.0,69,-99.99,,,-99.99,112.519997,,2013-09-11 23:00:00,
2013-09-11 19:42:00,77.0,66.0,-100.00,WSW,247,4.0,-999.0,69,-99.99,,,-99.99,112.519997,,2013-09-11 23:42:00,
2013-09-11 19:53:00,77.0,66.0,-100.00,WSW,247,4.0,-999.0,69,-99.99,,,-99.99,112.519997,,2013-09-11 23:53:00,
2013-09-11 20:00:00,75.0,66.0,-100.00,WNW,292,2.0,-999.0,73,-99.99,,,-99.99,24.360001,,2013-09-12 00:00:00,
2013-09-11 20:42:00,75.0,66.0,-100.00,WNW,292,2.0,-999.0,73,-99.99,,,-99.99,24.360001,,2013-09-12 00:42:00,
2013-09-11 20:52:00,75.0,66.0,-100.00,WNW,292,2.0,-999.0,73,-99.99,,,-99.99,24.360001,,2013-09-12 00:52:00,
2013-09-11 21:00:00,71.0,66.0,-100.00,West,270,0.0,-999.0,86,-99.99,,,-99.99,0.000000,,2013-09-12 01:00:00,
2013-09-11 21:42:00,71.0,66.0,-100.00,West,270,0.0,-999.0,86,-99.99,,,-99.99,0.000000,,2013-09-12 01:42:00,
2013-09-11 21:52:00,71.0,66.0,-100.00,West,270,0.0,-999.0,86,-99.99,,,-99.99,0.000000,,2013-09-12 01:52:00,
2013-09-11 22:00:00,69.0,67.0,-100.00,SSW,202,0.0,-999.0,94,-99.99,,,-99.99,0.000000,,2013-09-12 02:00:00,
2013-09-11 22:52:00,69.0,67.0,-100.00,SSW,202,0.0,-999.0,94,-99.99,,,-99.99,0.000000,,2013-09-12 02:52:00,